Time;durP1;ratioP1;P1;durP2;ratioP2;P2;SDS_P1;SDS_P2;PMS_P1;PMS_P2;Temp;Humidity;BMP_temperature;BMP_pressure;BME280_temperature;BME280_humidity;BME280_pressure;Samples;Min_cycle;Max_cycle;Signal;HPM_P1;HPM_P2
2022/12/28 00:01:49;;;;;;;27.83;15.87;;;-0.80;99.90;;;;;;10359702;28;20260;-79
2022/12/28 00:06:52;;;;;;;27.23;15.70;;;-0.90;99.90;;;;;;10354853;28;20613;-78
2022/12/28 00:11:54;;;;;;;28.23;15.90;;;-0.80;99.90;;;;;;10369992;28;20248;-79
2022/12/28 00:16:56;;;;;;;28.10;15.47;;;-0.90;99.90;;;;;;10362114;28;20236;-80
2022/12/28 00:21:59;;;;;;;32.27;15.60;;;-0.90;99.90;;;;;;10350869;28;20311;-82
2022/12/28 00:27:02;;;;;;;29.13;17.27;;;-0.90;99.90;;;;;;10339032;28;20237;-81
2022/12/28 00:32:04;;;;;;;30.70;19.20;;;-0.90;99.90;;;;;;10344047;28;20260;-81
2022/12/28 00:37:07;;;;;;;32.87;17.40;;;-0.90;99.90;;;;;;10341430;28;20259;-80
2022/12/28 00:42:14;;;;;;;39.17;18.13;;;-0.90;99.90;;;;;;10341773;28;20275;-81
2022/12/28 00:47:17;;;;;;;31.13;15.47;;;-0.90;99.90;;;;;;10343844;28;20261;-79
2022/12/28 00:52:20;;;;;;;23.00;14.63;;;-0.80;99.90;;;;;;10342065;28;20231;-81
2022/12/28 00:57:22;;;;;;;31.27;16.50;;;-0.70;99.90;;;;;;10341519;28;20224;-80
2022/12/28 01:02:25;;;;;;;28.03;15.53;;;-0.60;99.90;;;;;;10336842;28;20355;-79
2022/12/28 01:07:27;;;;;;;29.80;16.07;;;-0.60;99.90;;;;;;10327361;28;20823;-79
2022/12/28 01:12:30;;;;;;;28.40;16.40;;;-0.60;99.90;;;;;;10346937;28;20252;-79
2022/12/28 01:17:39;;;;;;;31.00;18.83;;;-0.70;99.90;;;;;;10340980;28;20694;-79
2022/12/28 01:22:42;;;;;;;32.27;19.80;;;-0.60;99.90;;;;;;10341879;28;20248;-79
2022/12/28 01:27:44;;;;;;;37.53;18.23;;;-0.60;99.90;;;;;;10339049;28;20254;-79
2022/12/28 01:32:47;;;;;;;29.10;16.47;;;-0.50;99.90;;;;;;10342608;28;20233;-79
2022/12/28 01:37:49;;;;;;;33.10;16.43;;;-0.60;99.90;;;;;;10342432;28;20282;-79
2022/12/28 01:42:52;;;;;;;35.20;16.90;;;-0.60;99.90;;;;;;10337270;28;20722;-79
2022/12/28 01:47:55;;;;;;;23.73;14.00;;;-0.60;99.90;;;;;;10365673;28;20306;-79
2022/12/28 01:53:04;;;;;;;25.67;13.97;;;-0.70;99.90;;;;;;10354701;28;20223;-79
2022/12/28 01:58:10;;;;;;;23.60;14.60;;;-0.70;99.90;;;;;;10344001;28;20326;-79
2022/12/28 02:03:22;;;;;;;26.50;13.67;;;-0.70;99.90;;;;;;10363254;28;20307;-79
2022/12/28 02:08:43;;;;;;;22.60;13.33;;;-0.70;99.90;;;;;;10330994;28;20235;-78
2022/12/28 02:13:48;;;;;;;20.27;11.80;;;-0.70;99.90;;;;;;10340894;28;20240;-78
2022/12/28 02:18:52;;;;;;;24.20;13.27;;;-0.70;99.90;;;;;;10342773;28;20256;-79
2022/12/28 02:23:57;;;;;;;20.87;12.13;;;-0.70;99.90;;;;;;10343874;28;20670;-78
2022/12/28 02:29:28;;;;;;;23.90;12.73;;;-0.70;99.90;;;;;;10361459;28;20263;-79
2022/12/28 02:34:56;;;;;;;26.53;13.10;;;-0.70;99.90;;;;;;10346794;28;20843;-79
2022/12/28 02:40:05;;;;;;;27.63;14.87;;;-0.70;99.90;;;;;;10349639;28;20255;-79
2022/12/28 02:50:52;;;;;;;19.73;12.63;;;-0.70;99.90;;;;;;10355257;28;20791;-79
2022/12/28 02:56:29;;;;;;;25.20;11.93;;;-0.50;99.90;;;;;;10330011;28;20797;-78
2022/12/28 03:01:47;;;;;;;18.87;11.70;;;-0.30;99.90;;;;;;10338082;28;20718;-78
2022/12/28 03:12:54;;;;;;;21.27;11.03;;;-0.10;99.90;;;;;;10360162;28;20774;-78
2022/12/28 03:34:17;;;;;;;21.00;11.10;;;-0.20;99.90;;;;;;10353520;28;20711;-79
2022/12/28 03:39:40;;;;;;;25.87;12.83;;;-0.10;99.90;;;;;;10344904;28;20252;-79
2022/12/28 03:44:51;;;;;;;20.57;10.83;;;-0.10;99.90;;;;;;10346446;28;20279;-79
2022/12/28 03:49:54;;;;;;;19.80;9.83;;;-0.20;99.90;;;;;;10341974;28;20338;-79
2022/12/28 03:54:58;;;;;;;12.97;8.73;;;-0.30;99.90;;;;;;10339789;28;20244;-79
2022/12/28 04:00:03;;;;;;;13.67;8.80;;;-0.40;99.90;;;;;;10335112;28;20259;-79
2022/12/28 04:05:16;;;;;;;16.17;9.50;;;-0.20;99.90;;;;;;10350618;28;20244;-78
2022/12/28 04:10:20;;;;;;;17.23;9.70;;;0.00;99.90;;;;;;10333696;28;20299;-79
2022/12/28 04:15:23;;;;;;;16.80;10.50;;;0.10;99.90;;;;;;10327707;28;20295;-79
2022/12/28 04:20:26;;;;;;;16.40;9.63;;;0.20;99.90;;;;;;10330654;28;20243;-79
2022/12/28 04:25:28;;;;;;;16.37;10.30;;;0.30;99.90;;;;;;10349801;28;20239;-79
2022/12/28 04:30:31;;;;;;;16.20;9.93;;;0.40;99.90;;;;;;10351576;28;20647;-79
2022/12/28 04:35:34;;;;;;;14.00;9.00;;;0.50;99.90;;;;;;10326764;28;20240;-79
2022/12/28 04:40:36;;;;;;;12.37;8.07;;;0.50;99.90;;;;;;10359525;28;20248;-78
2022/12/28 04:45:39;;;;;;;15.60;8.47;;;0.60;99.90;;;;;;10336785;28;20220;-78
2022/12/28 04:50:42;;;;;;;18.40;8.73;;;0.70;99.90;;;;;;10329801;28;21013;-79
2022/12/28 04:55:44;;;;;;;14.07;9.07;;;0.70;99.90;;;;;;10334769;28;20624;-79
2022/12/28 05:00:47;;;;;;;15.27;9.50;;;0.70;99.90;;;;;;10339037;28;20311;-78
2022/12/28 05:05:50;;;;;;;15.87;11.07;;;0.80;99.90;;;;;;10343306;28;20689;-78
2022/12/28 05:10:52;;;;;;;19.23;12.53;;;0.70;99.90;;;;;;10328222;28;20236;-79
2022/12/28 05:16:00;;;;;;;12.67;9.07;;;0.50;99.90;;;;;;10348603;28;20701;-79
2022/12/28 05:21:11;;;;;;;15.43;10.17;;;0.40;99.90;;;;;;10334213;28;20323;-78
2022/12/28 05:26:16;;;;;;;23.90;12.50;;;0.40;99.90;;;;;;10327169;28;20240;-78
2022/12/28 05:31:20;;;;;;;24.27;14.77;;;0.30;99.90;;;;;;10335361;28;20236;-79
2022/12/28 05:36:25;;;;;;;18.77;10.80;;;0.30;99.90;;;;;;10336310;28;20233;-79
2022/12/28 05:41:29;;;;;;;14.80;9.37;;;0.40;99.90;;;;;;10340500;28;20252;-78
2022/12/28 05:46:33;;;;;;;21.43;12.17;;;0.40;99.90;;;;;;10342335;28;20279;-79
2022/12/28 05:51:36;;;;;;;23.97;14.53;;;0.40;99.90;;;;;;10339231;28;20232;-78
2022/12/28 05:56:41;;;;;;;27.03;15.30;;;0.50;99.90;;;;;;10331701;28;20243;-78
2022/12/28 06:01:44;;;;;;;21.07;12.67;;;0.50;99.90;;;;;;10352436;28;20252;-78
2022/12/28 06:06:54;;;;;;;15.10;9.70;;;0.60;99.90;;;;;;10340734;28;20237;-78
2022/12/28 06:11:57;;;;;;;14.37;9.37;;;0.70;99.90;;;;;;10363085;28;20248;-79
2022/12/28 06:16:59;;;;;;;18.90;11.93;;;0.70;99.90;;;;;;10342073;28;20724;-78
2022/12/28 06:22:02;;;;;;;21.80;12.90;;;0.70;99.90;;;;;;10340163;28;20314;-78
2022/12/28 06:27:04;;;;;;;21.17;12.97;;;0.70;99.90;;;;;;10348989;28;20228;-79
2022/12/28 06:32:07;;;;;;;33.80;17.67;;;0.80;99.90;;;;;;10370883;28;20244;-79
2022/12/28 06:37:09;;;;;;;25.40;13.07;;;0.80;99.90;;;;;;10357895;28;20237;-79
2022/12/28 06:42:12;;;;;;;24.83;14.23;;;0.80;99.90;;;;;;10350219;28;20318;-78
2022/12/28 06:47:15;;;;;;;23.67;14.60;;;0.80;99.90;;;;;;10363541;28;20314;-79
2022/12/28 06:52:17;;;;;;;47.23;20.17;;;0.80;99.90;;;;;;10337316;28;20232;-79
2022/12/28 06:57:20;;;;;;;30.87;14.23;;;0.90;99.90;;;;;;10341838;28;20240;-79
2022/12/28 07:02:22;;;;;;;20.63;12.20;;;1.00;99.90;;;;;;10340845;28;20276;-78
2022/12/28 07:07:25;;;;;;;18.13;9.07;;;1.00;99.90;;;;;;10351951;28;20228;-80
2022/12/28 07:12:28;;;;;;;16.43;9.07;;;1.00;99.90;;;;;;10369071;28;20290;-80
2022/12/28 07:17:32;;;;;;;16.67;9.37;;;1.00;99.90;;;;;;10346968;28;20237;-80
2022/12/28 07:22:35;;;;;;;13.50;8.63;;;1.10;99.90;;;;;;10340773;28;20294;-80
2022/12/28 07:27:37;;;;;;;17.07;10.70;;;1.10;99.90;;;;;;10347719;28;20229;-80
2022/12/28 07:32:40;;;;;;;16.73;11.90;;;1.10;99.90;;;;;;10363499;28;20298;-79
2022/12/28 07:37:43;;;;;;;26.87;13.00;;;1.20;99.90;;;;;;10346787;28;20981;-81
2022/12/28 07:42:45;;;;;;;19.03;11.43;;;1.20;99.90;;;;;;10335224;28;20669;-78
2022/12/28 07:47:48;;;;;;;24.17;13.57;;;1.30;99.90;;;;;;10359945;28;20735;-78
2022/12/28 07:52:51;;;;;;;28.40;16.77;;;1.30;99.90;;;;;;10334722;28;20233;-78
2022/12/28 07:57:53;;;;;;;19.33;12.03;;;1.40;99.90;;;;;;10351419;28;20267;-78
2022/12/28 08:02:56;;;;;;;18.83;11.10;;;1.40;99.90;;;;;;10359224;28;20307;-78
2022/12/28 08:07:58;;;;;;;18.17;10.93;;;1.50;99.90;;;;;;10346289;28;20229;-78
2022/12/28 08:13:05;;;;;;;24.27;12.40;;;1.60;99.90;;;;;;10356634;28;20609;-78
2022/12/28 08:18:08;;;;;;;22.17;12.50;;;1.60;99.90;;;;;;10341755;28;20244;-78
2022/12/28 08:23:10;;;;;;;34.47;14.53;;;1.70;99.90;;;;;;10342268;28;20257;-78
2022/12/28 08:28:13;;;;;;;16.07;9.83;;;1.80;99.90;;;;;;10347233;28;20228;-78
2022/12/28 08:33:15;;;;;;;19.50;11.10;;;2.10;99.90;;;;;;10347149;28;20232;-78
2022/12/28 08:38:18;;;;;;;14.07;9.77;;;2.10;99.90;;;;;;10362201;28;20274;-78
2022/12/28 08:43:20;;;;;;;21.23;12.30;;;2.10;99.90;;;;;;10336925;28;20353;-78
2022/12/28 08:48:23;;;;;;;13.13;8.80;;;2.30;99.90;;;;;;10342755;28;20639;-77
2022/12/28 08:53:25;;;;;;;19.47;9.67;;;2.40;99.90;;;;;;10351507;28;20236;-78
2022/12/28 08:58:28;;;;;;;17.37;10.43;;;2.50;99.90;;;;;;10349715;28;20670;-78
2022/12/28 09:03:30;;;;;;;26.70;12.23;;;2.60;99.90;;;;;;10331392;28;20279;-78
2022/12/28 09:08:33;;;;;;;25.27;13.23;;;2.70;99.90;;;;;;10366978;28;20314;-78
2022/12/28 09:13:36;;;;;;;27.30;13.03;;;2.70;99.90;;;;;;10349155;28;20859;-78
2022/12/28 09:18:41;;;;;;;20.27;11.70;;;2.70;99.90;;;;;;10368148;28;20240;-77
2022/12/28 09:23:45;;;;;;;20.27;12.00;;;2.80;99.90;;;;;;10356246;28;20646;-78
2022/12/28 09:28:56;;;;;;;21.47;12.13;;;2.90;99.90;;;;;;10327809;28;20243;-78
2022/12/28 09:34:01;;;;;;;26.23;14.63;;;3.00;99.90;;;;;;10327509;28;20744;-78
2022/12/28 09:39:25;;;;;;;17.90;12.00;;;3.00;99.90;;;;;;10327438;28;20197;-78
2022/12/28 09:45:00;;;;;;;17.10;9.40;;;3.10;99.90;;;;;;10329049;28;20260;-78
2022/12/28 09:50:17;;;;;;;17.20;10.07;;;3.30;99.90;;;;;;10337443;28;20802;-78
2022/12/28 09:55:21;;;;;;;18.40;9.43;;;3.50;99.90;;;;;;10362950;28;20913;-79
2022/12/28 10:00:33;;;;;;;19.00;10.37;;;3.60;99.90;;;;;;10358160;28;20300;-79
2022/12/28 10:05:35;;;;;;;16.57;9.30;;;3.70;99.90;;;;;;10365157;28;20242;-79
2022/12/28 10:10:40;;;;;;;12.90;9.03;;;3.70;99.90;;;;;;10344007;28;20624;-79
2022/12/28 10:15:50;;;;;;;17.80;8.10;;;4.00;99.90;;;;;;10325930;28;20305;-79
2022/12/28 10:20:53;;;;;;;13.07;8.37;;;4.10;99.90;;;;;;10324417;28;20259;-79
2022/12/28 10:25:58;;;;;;;11.97;8.00;;;4.20;99.90;;;;;;10338085;28;20623;-78
2022/12/28 10:31:05;;;;;;;13.60;8.00;;;4.30;99.90;;;;;;10346139;28;20254;-79
2022/12/28 10:36:13;;;;;;;13.63;7.90;;;4.40;99.90;;;;;;10356812;28;20314;-79
2022/12/28 10:41:18;;;;;;;14.13;8.47;;;4.60;99.90;;;;;;10336842;28;20257;-79
2022/12/28 10:46:23;;;;;;;14.00;6.33;;;4.70;99.90;;;;;;10341834;28;20231;-79
2022/12/28 10:51:28;;;;;;;11.33;6.90;;;4.80;99.90;;;;;;10324470;28;20236;-79
2022/12/28 10:56:42;;;;;;;9.30;5.83;;;5.10;99.90;;;;;;10334006;28;20686;-80
2022/12/28 11:01:45;;;;;;;13.80;8.23;;;5.70;99.90;;;;;;10414672;22;20270;-78
2022/12/28 11:06:51;;;;;;;10.30;5.53;;;6.00;99.90;;;;;;10383615;28;20262;-78
2022/12/28 11:12:14;;;;;;;10.53;6.63;;;7.30;99.90;;;;;;10388579;28;20239;-77
2022/12/28 11:17:25;;;;;;;11.47;6.57;;;7.60;99.90;;;;;;10391435;28;20314;-77
2022/12/28 11:22:30;;;;;;;18.37;8.67;;;7.30;99.90;;;;;;10369954;28;20293;-77
2022/12/28 11:27:35;;;;;;;12.37;7.03;;;6.90;99.90;;;;;;10367709;28;20905;-77
2022/12/28 11:32:46;;;;;;;12.50;6.93;;;6.40;99.90;;;;;;10410613;28;20316;-77
2022/12/28 11:37:55;;;;;;;10.63;6.80;;;6.30;99.90;;;;;;10382027;28;20644;-77
2022/12/28 11:42:58;;;;;;;12.83;6.67;;;6.80;99.90;;;;;;10391381;28;20313;-77
2022/12/28 11:48:39;;;;;;;19.87;9.83;;;6.70;99.90;;;;;;10364680;28;20232;-78
2022/12/28 11:53:44;;;;;;;9.43;5.37;;;6.10;99.90;;;;;;10402429;28;20243;-78
2022/12/28 11:59:19;;;;;;;14.23;6.30;;;7.60;99.90;;;;;;10405614;28;20271;-78
2022/12/28 12:04:54;;;;;;;7.30;4.07;;;7.70;99.90;;;;;;10380651;28;20321;-78
2022/12/28 12:10:33;;;;;;;9.90;6.20;;;8.40;99.90;;;;;;10347006;28;20240;-78
2022/12/28 12:15:41;;;;;;;11.17;6.50;;;8.70;99.90;;;;;;10233952;28;20621;-88
2022/12/28 12:21:06;;;;;;;11.00;6.13;;;9.30;99.20;;;;;;10226046;29;20242;-90
2022/12/28 12:26:38;;;;;;;32.20;7.20;;;9.40;98.50;;;;;;10241220;29;20246;-90
2022/12/28 12:31:49;;;;;;;24.43;9.10;;;9.70;99.90;;;;;;10243921;29;20234;-89
2022/12/28 12:37:27;;;;;;;12.33;6.13;;;10.50;99.90;;;;;;10237870;29;20241;-90
2022/12/28 12:42:58;;;;;;;20.67;6.07;;;11.60;99.90;;;;;;10240363;29;20255;-89
2022/12/28 12:48:10;;;;;;;11.97;6.63;;;11.90;97.10;;;;;;10296153;28;20237;-89
2022/12/28 12:53:50;;;;;;;15.57;6.37;;;11.20;97.40;;;;;;10398873;28;20235;-90
2022/12/28 12:59:26;;;;;;;10.73;5.40;;;11.40;97.10;;;;;;10361860;28;20279;-90
2022/12/28 13:04:32;;;;;;;14.93;7.77;;;10.70;97.40;;;;;;10386826;28;20721;-90
2022/12/28 13:09:35;;;;;;;11.33;5.77;;;10.90;99.20;;;;;;10383610;28;20298;-90
2022/12/28 13:14:38;;;;;;;13.23;6.10;;;10.90;97.40;;;;;;10376992;28;20227;-89
2022/12/28 13:19:40;;;;;;;9.07;5.83;;;10.30;98.60;;;;;;10389132;28;20228;-90
2022/12/28 13:24:44;;;;;;;16.07;7.97;;;9.70;98.40;;;;;;10370875;28;20252;-90
2022/12/28 13:29:52;;;;;;;16.17;6.33;;;9.50;99.90;;;;;;10372602;28;20236;-89
2022/12/28 13:34:55;;;;;;;12.27;5.47;;;9.30;99.10;;;;;;10406089;28;20309;-90
2022/12/28 13:40:14;;;;;;;11.43;5.67;;;9.10;99.90;;;;;;10379888;28;20318;-90
2022/12/28 13:45:19;;;;;;;8.90;4.93;;;9.30;99.90;;;;;;10403828;28;20648;-89
2022/12/28 13:50:32;;;;;;;13.83;6.57;;;9.70;99.90;;;;;;10381943;28;20310;-89
2022/12/28 13:55:48;;;;;;;15.97;6.83;;;9.50;99.90;;;;;;10383227;28;20295;-90
2022/12/28 14:00:54;;;;;;;16.30;6.10;;;9.70;99.90;;;;;;10362197;28;20254;-90
2022/12/28 14:05:59;;;;;;;8.80;5.33;;;9.30;99.90;;;;;;10377526;28;20340;-89
2022/12/28 14:11:04;;;;;;;20.43;8.97;;;9.50;99.90;;;;;;10399177;28;20762;-90
2022/12/28 14:16:07;;;;;;;14.50;7.03;;;9.50;99.90;;;;;;10399762;28;20246;-89
2022/12/28 14:21:10;;;;;;;15.63;7.70;;;9.90;99.90;;;;;;10367959;28;20239;-89
2022/12/28 14:26:21;;;;;;;17.93;7.70;;;10.00;99.90;;;;;;10366474;28;20229;-89
2022/12/28 14:31:29;;;;;;;13.03;7.03;;;10.00;99.90;;;;;;10408125;28;20680;-89
2022/12/28 14:36:42;;;;;;;14.50;7.83;;;9.70;99.90;;;;;;10404069;28;20269;-89
2022/12/28 14:41:45;;;;;;;14.20;7.70;;;9.50;99.90;;;;;;10373167;28;20300;-90
2022/12/28 14:46:53;;;;;;;17.70;7.00;;;9.50;99.90;;;;;;10391070;28;20235;-90
2022/12/28 14:52:20;;;;;;;12.60;7.17;;;9.90;99.90;;;;;;10392161;28;20280;-90
2022/12/28 14:57:33;;;;;;;15.20;7.97;;;10.10;99.90;;;;;;10344664;28;20298;-89
2022/12/28 15:03:20;;;;;;;15.70;7.20;;;10.20;99.90;;;;;;10413324;28;20276;-89
2022/12/28 15:08:23;;;;;;;17.23;8.40;;;10.30;99.90;;;;;;10413587;28;20267;-88
2022/12/28 15:13:26;;;;;;;10.80;6.57;;;10.20;99.90;;;;;;10399823;28;21046;-88
2022/12/28 15:18:29;;;;;;;21.60;11.17;;;10.00;99.90;;;;;;10433418;28;20746;-88
2022/12/28 15:23:32;;;;;;;17.23;8.10;;;9.80;99.90;;;;;;10378520;28;20670;-88
2022/12/28 15:28:35;;;;;;;14.87;8.87;;;9.30;99.90;;;;;;10313993;28;20289;-89
2022/12/28 15:33:38;;;;;;;10.33;6.87;;;9.80;99.90;;;;;;10331096;28;20768;-89
2022/12/28 15:38:41;;;;;;;17.10;7.43;;;10.00;99.90;;;;;;10331433;28;20264;-89
2022/12/28 15:43:47;;;;;;;13.43;6.57;;;10.40;99.90;;;;;;10331264;28;20262;-86
2022/12/28 15:48:50;;;;;;;12.57;6.07;;;10.80;99.90;;;;;;10331617;28;20238;-87
2022/12/28 15:53:53;;;;;;;13.37;6.10;;;11.00;99.90;;;;;;10331378;28;20305;-86
2022/12/28 15:58:57;;;;;;;12.60;6.47;;;10.90;99.90;;;;;;10330681;28;20272;-86
2022/12/28 16:04:01;;;;;;;9.23;5.63;;;12.10;96.80;;;;;;10330232;28;20317;-89
2022/12/28 16:09:04;;;;;;;13.77;6.27;;;11.90;96.40;;;;;;10330214;28;20388;-88
2022/12/28 16:14:11;;;;;;;13.20;7.10;;;11.50;98.70;;;;;;10330035;28;20241;-89
2022/12/28 16:19:15;;;;;;;13.50;7.03;;;11.00;99.10;;;;;;10329286;28;20242;-87
2022/12/28 16:24:19;;;;;;;15.97;9.17;;;10.80;99.50;;;;;;10312473;28;20255;-87
2022/12/28 16:29:21;;;;;;;13.83;6.87;;;10.40;99.90;;;;;;10329442;28;20313;-86
2022/12/28 16:34:24;;;;;;;18.87;9.00;;;9.90;99.90;;;;;;10311516;28;20251;-87
2022/12/28 16:39:28;;;;;;;13.07;7.97;;;10.00;99.90;;;;;;10329572;28;20234;-86
2022/12/28 16:44:32;;;;;;;11.80;8.47;;;9.70;99.90;;;;;;10311999;28;20669;-87
2022/12/28 16:49:38;;;;;;;12.03;6.63;;;9.70;99.90;;;;;;10295251;28;20699;-87
2022/12/28 16:54:41;;;;;;;10.13;5.67;;;9.70;99.90;;;;;;10326847;28;20262;-87
2022/12/28 16:59:43;;;;;;;10.90;6.53;;;9.90;99.90;;;;;;10310432;28;20664;-87
2022/12/28 17:04:46;;;;;;;11.60;5.90;;;10.50;99.90;;;;;;10327484;28;20911;-87
2022/12/28 17:09:48;;;;;;;13.17;7.87;;;10.20;99.90;;;;;;10326613;28;20315;-87
2022/12/28 17:14:51;;;;;;;11.37;6.07;;;10.50;99.90;;;;;;10325942;28;20626;-86
2022/12/28 17:19:55;;;;;;;10.40;6.13;;;10.70;99.90;;;;;;10327632;28;20267;-87
2022/12/28 17:24:57;;;;;;;10.83;6.13;;;10.80;99.90;;;;;;10326937;28;20322;-87
2022/12/28 17:30:00;;;;;;;8.20;4.27;;;10.90;99.90;;;;;;10309831;28;20293;-86
2022/12/28 17:35:03;;;;;;;10.07;6.50;;;11.40;99.90;;;;;;10327541;28;20231;-87
2022/12/28 17:40:06;;;;;;;7.70;5.00;;;11.80;97.60;;;;;;10309866;28;20298;-87
2022/12/28 17:45:09;;;;;;;7.57;4.30;;;12.10;98.70;;;;;;10327312;28;20317;-87
2022/12/28 17:50:13;;;;;;;8.67;4.73;;;12.60;97.10;;;;;;10326401;28;20267;-86
2022/12/28 17:55:16;;;;;;;13.33;6.50;;;12.60;97.80;;;;;;10326762;28;20731;-87
2022/12/28 18:00:19;;;;;;;11.07;6.17;;;12.30;96.80;;;;;;10326353;28;20264;-87
2022/12/28 18:05:24;;;;;;;9.27;5.90;;;11.40;97.20;;;;;;10330067;28;20255;-86
2022/12/28 18:10:27;;;;;;;10.93;5.53;;;11.00;99.90;;;;;;10334809;28;20235;-86
2022/12/28 18:15:32;;;;;;;10.60;6.50;;;10.70;99.90;;;;;;10338107;28;20908;-87
2022/12/28 18:20:35;;;;;;;15.10;8.23;;;10.60;99.90;;;;;;10357836;28;20230;-86
2022/12/28 18:25:38;;;;;;;12.20;6.87;;;11.20;98.30;;;;;;10374780;28;20308;-87
2022/12/28 18:30:41;;;;;;;15.63;8.40;;;10.70;99.90;;;;;;10374946;28;20715;-87
2022/12/28 18:35:43;;;;;;;15.90;10.47;;;10.90;99.90;;;;;;10357136;28;20218;-87
2022/12/28 18:40:54;;;;;;;14.50;8.40;;;9.70;99.90;;;;;;10340982;28;20199;-88
2022/12/28 18:46:00;;;;;;;13.43;7.53;;;9.40;99.90;;;;;;10356955;28;20260;-87
2022/12/28 18:51:06;;;;;;;11.03;6.40;;;9.10;99.90;;;;;;10374071;28;20303;-88
2022/12/28 18:56:13;;;;;;;11.27;6.57;;;9.30;99.90;;;;;;10374003;28;20233;-87
2022/12/28 19:01:18;;;;;;;16.90;9.50;;;9.10;99.90;;;;;;10373479;28;20321;-88
2022/12/28 19:06:41;;;;;;;16.87;10.17;;;8.70;99.90;;;;;;10373152;28;21008;-88
2022/12/28 19:11:44;;;;;;;12.47;8.20;;;8.10;99.90;;;;;;10373313;28;20702;-87
2022/12/28 19:16:47;;;;;;;20.50;11.13;;;8.10;99.90;;;;;;10338723;28;20216;-88
2022/12/28 19:21:50;;;;;;;17.70;9.03;;;8.10;99.90;;;;;;10373032;28;20233;-88
2022/12/28 19:26:59;;;;;;;17.90;8.73;;;8.20;99.90;;;;;;10372224;28;20260;-88
2022/12/28 19:32:02;;;;;;;21.80;11.30;;;8.10;99.90;;;;;;10372908;28;20229;-88
2022/12/28 19:37:04;;;;;;;18.63;10.57;;;8.10;99.90;;;;;;10372125;28;20683;-88
2022/12/28 19:42:07;;;;;;;21.50;10.97;;;8.00;99.90;;;;;;10354921;28;20239;-88
2022/12/28 19:47:10;;;;;;;28.83;13.07;;;7.90;99.90;;;;;;10354219;28;20806;-88
2022/12/28 19:52:12;;;;;;;19.23;10.23;;;7.90;99.90;;;;;;10354586;28;20243;-88
2022/12/28 19:57:15;;;;;;;23.60;13.87;;;7.70;99.90;;;;;;10371447;28;20324;-87
2022/12/28 20:02:17;;;;;;;23.30;11.40;;;7.60;99.90;;;;;;10371629;28;20261;-88
2022/12/28 20:07:20;;;;;;;16.03;10.53;;;7.30;99.90;;;;;;10370727;28;20723;-87
2022/12/28 20:12:23;;;;;;;16.70;9.10;;;7.10;99.90;;;;;;10370882;28;20293;-88
2022/12/28 20:17:25;;;;;;;18.43;11.57;;;6.90;99.90;;;;;;10370819;28;20244;-87
2022/12/28 20:22:28;;;;;;;10.97;6.93;;;7.00;99.90;;;;;;10354123;28;20224;-88
2022/12/28 20:27:30;;;;;;;17.20;11.13;;;7.00;99.90;;;;;;10369040;28;20314;-87
2022/12/28 20:32:33;;;;;;;16.93;9.53;;;7.20;99.90;;;;;;10353092;28;20943;-88
2022/12/28 20:37:44;;;;;;;19.10;9.43;;;7.00;99.90;;;;;;10370756;28;20235;-87
2022/12/28 20:48:07;;;;;;;10.93;6.63;;;7.00;99.90;;;;;;10369745;28;20681;-87
2022/12/28 20:53:10;;;;;;;16.00;9.43;;;7.10;99.90;;;;;;10368759;28;20244;-87
2022/12/28 20:58:12;;;;;;;12.67;8.97;;;7.10;99.90;;;;;;10368871;28;20264;-88
2022/12/28 21:03:15;;;;;;;16.10;9.10;;;7.20;99.90;;;;;;10351164;28;20298;-87
2022/12/28 21:08:17;;;;;;;9.63;7.00;;;7.20;99.90;;;;;;10368939;28;20235;-88
2022/12/28 21:13:20;;;;;;;10.17;7.13;;;7.30;99.90;;;;;;10351155;28;20240;-87
2022/12/28 21:18:23;;;;;;;10.90;6.43;;;7.50;99.90;;;;;;10367023;28;20250;-90
2022/12/28 21:23:27;;;;;;;15.53;10.70;;;8.20;99.90;;;;;;10362804;28;20327;-87
2022/12/28 21:28:30;;;;;;;15.40;10.43;;;7.90;99.90;;;;;;10352105;28;20609;-87
2022/12/28 21:33:33;;;;;;;12.47;8.27;;;7.20;99.90;;;;;;10369441;28;20266;-87
2022/12/28 21:38:39;;;;;;;12.07;7.33;;;7.10;99.90;;;;;;10369200;28;20601;-86
2022/12/28 21:43:42;;;;;;;11.53;7.73;;;7.10;99.90;;;;;;10367353;28;20292;-86
2022/12/28 21:48:44;;;;;;;13.17;8.33;;;7.30;99.90;;;;;;10367635;28;20295;-86
2022/12/28 21:53:47;;;;;;;11.37;7.23;;;7.30;99.90;;;;;;10368637;28;20637;-85
2022/12/28 21:58:50;;;;;;;11.37;7.20;;;7.30;99.90;;;;;;10350652;28;20299;-87
2022/12/28 22:14:35;;;;;;;13.40;7.03;;;7.20;99.90;;;;;;10354807;28;20680;-87
2022/12/28 22:19:37;;;;;;;14.03;8.33;;;7.20;99.90;;;;;;10365494;28;20237;-86
2022/12/28 22:24:40;;;;;;;13.53;7.03;;;7.00;99.90;;;;;;10350770;28;20245;-86
2022/12/28 22:29:44;;;;;;;10.43;8.50;;;7.00;99.90;;;;;;10366360;28;20294;-87
2022/12/28 22:34:47;;;;;;;16.10;9.37;;;7.00;99.90;;;;;;10363194;28;20237;-86
2022/12/28 22:39:52;;;;;;;14.30;8.03;;;7.30;99.90;;;;;;10332681;28;20266;-86
2022/12/28 22:44:55;;;;;;;11.83;8.40;;;7.30;99.90;;;;;;10366532;28;20252;-86
2022/12/28 22:49:58;;;;;;;13.40;7.80;;;7.60;99.90;;;;;;10346464;28;20676;-86
2022/12/28 22:55:00;;;;;;;11.17;7.13;;;7.60;99.90;;;;;;10364086;28;20267;-86
2022/12/28 23:00:07;;;;;;;12.13;6.30;;;7.60;99.90;;;;;;10356498;28;20293;-86
2022/12/28 23:05:10;;;;;;;11.43;7.63;;;7.60;99.90;;;;;;10356292;28;20742;-86
2022/12/28 23:10:12;;;;;;;9.10;6.30;;;7.50;99.90;;;;;;10350871;28;20286;-86
2022/12/28 23:15:15;;;;;;;8.27;6.47;;;7.50;99.90;;;;;;10323357;28;20245;-86
2022/12/28 23:31:01;;;;;;;8.63;6.10;;;7.30;99.90;;;;;;10332485;28;20989;-86
2022/12/28 23:36:04;;;;;;;10.60;6.23;;;7.20;99.90;;;;;;10350433;28;20306;-86
2022/12/28 23:46:27;;;;;;;8.47;5.77;;;6.80;99.90;;;;;;10353902;28;20270;-86
2022/12/28 23:51:30;;;;;;;8.53;5.93;;;6.60;99.90;;;;;;10355922;28;20290;-87
2022/12/28 23:56:33;;;;;;;7.93;6.37;;;6.50;99.90;;;;;;10371208;28;20633;-87
